sensor_id;sensor_type;location;lat;lon;timestamp;pressure;altitude;pressure_sealevel;temperature;humidity
43745;BME280;29359;53.048;8.732;2024-02-21T00:00:00;102008.53;;;8.49;80.28
43745;BME280;29359;53.048;8.732;2024-02-21T00:02:02;102012.84;;;8.50;79.91
43745;BME280;29359;53.048;8.732;2024-02-21T00:04:04;102010.25;;;8.50;80.03
43745;BME280;29359;53.048;8.732;2024-02-21T00:06:06;102007.63;;;8.50;80.07
43745;BME280;29359;53.048;8.732;2024-02-21T00:08:07;102020.69;;;8.47;80.11
43745;BME280;29359;53.048;8.732;2024-02-21T00:10:09;102014.59;;;8.48;80.18
43745;BME280;29359;53.048;8.732;2024-02-21T00:12:11;102015.44;;;8.49;80.00
43745;BME280;29359;53.048;8.732;2024-02-21T00:14:15;102013.72;;;8.49;80.15
43745;BME280;29359;53.048;8.732;2024-02-21T00:16:17;102005.03;;;8.49;79.92
43745;BME280;29359;53.048;8.732;2024-02-21T00:18:19;102003.34;;;8.46;80.20
43745;BME280;29359;53.048;8.732;2024-02-21T00:20:21;101994.66;;;8.46;80.37
43745;BME280;29359;53.048;8.732;2024-02-21T00:22:23;101993.78;;;8.47;80.31
43745;BME280;29359;53.048;8.732;2024-02-21T00:24:25;101994.63;;;8.47;80.09
43745;BME280;29359;53.048;8.732;2024-02-21T00:26:27;101988.53;;;8.48;80.13
43745;BME280;29359;53.048;8.732;2024-02-21T00:28:28;101997.25;;;8.47;80.18
43745;BME280;29359;53.048;8.732;2024-02-21T00:30:30;101992.03;;;8.47;80.10
43745;BME280;29359;53.048;8.732;2024-02-21T00:32:32;101981.66;;;8.44;80.29
43745;BME280;29359;53.048;8.732;2024-02-21T00:34:36;101979.03;;;8.46;80.30
43745;BME280;29359;53.048;8.732;2024-02-21T00:36:38;101983.38;;;8.47;80.33
43745;BME280;29359;53.048;8.732;2024-02-21T00:38:40;101975.56;;;8.47;80.29
43745;BME280;29359;53.048;8.732;2024-02-21T00:40:41;101975.59;;;8.45;80.41
43745;BME280;29359;53.048;8.732;2024-02-21T00:42:44;101974.69;;;8.45;80.52
43745;BME280;29359;53.048;8.732;2024-02-21T00:44:45;101979.03;;;8.44;80.15
43745;BME280;29359;53.048;8.732;2024-02-21T00:46:47;101987.69;;;8.48;80.03
43745;BME280;29359;53.048;8.732;2024-02-21T00:48:49;101991.16;;;8.48;80.16
43745;BME280;29359;53.048;8.732;2024-02-21T00:50:52;101975.53;;;8.48;80.18
43745;BME280;29359;53.048;8.732;2024-02-21T00:52:53;101973.78;;;8.49;80.02
43745;BME280;29359;53.048;8.732;2024-02-21T00:54:56;101979.88;;;8.49;79.94
43745;BME280;29359;53.048;8.732;2024-02-21T00:56:57;101980.72;;;8.50;79.99
43745;BME280;29359;53.048;8.732;2024-02-21T00:58:59;101988.53;;;8.48;79.99
43745;BME280;29359;53.048;8.732;2024-02-21T01:01:01;101978.13;;;8.48;80.29
43745;BME280;29359;53.048;8.732;2024-02-21T01:03:03;101977.28;;;8.48;80.24
43745;BME280;29359;53.048;8.732;2024-02-21T01:05:05;101969.47;;;8.49;80.19
43745;BME280;29359;53.048;8.732;2024-02-21T01:07:07;101976.38;;;8.49;80.01
43745;BME280;29359;53.048;8.732;2024-02-21T01:09:10;101962.50;;;8.50;79.96
43745;BME280;29359;53.048;8.732;2024-02-21T01:11:12;101963.38;;;8.49;80.13
43745;BME280;29359;53.048;8.732;2024-02-21T01:13:14;101966.81;;;8.51;80.19
43745;BME280;29359;53.048;8.732;2024-02-21T01:15:16;101951.19;;;8.51;79.97
43745;BME280;29359;53.048;8.732;2024-02-21T01:17:18;101960.72;;;8.52;80.04
43745;BME280;29359;53.048;8.732;2024-02-21T01:19:19;101952.06;;;8.51;79.98
43745;BME280;29359;53.048;8.732;2024-02-21T01:21:21;101965.09;;;8.53;79.92
43745;BME280;29359;53.048;8.732;2024-02-21T01:23:23;101952.03;;;8.54;80.03
43745;BME280;29359;53.048;8.732;2024-02-21T01:25:25;101950.25;;;8.56;79.90
43745;BME280;29359;53.048;8.732;2024-02-21T01:27:27;101945.94;;;8.55;79.80
43745;BME280;29359;53.048;8.732;2024-02-21T01:29:28;101938.13;;;8.57;79.66
43745;BME280;29359;53.048;8.732;2024-02-21T01:31:30;101923.34;;;8.56;79.68
43745;BME280;29359;53.048;8.732;2024-02-21T01:33:32;101920.75;;;8.56;79.58
43745;BME280;29359;53.048;8.732;2024-02-21T01:35:36;101919.00;;;8.56;79.51
43745;BME280;29359;53.048;8.732;2024-02-21T01:37:38;101906.88;;;8.57;79.64
43745;BME280;29359;53.048;8.732;2024-02-21T01:39:40;101905.13;;;8.56;79.83
43745;BME280;29359;53.048;8.732;2024-02-21T01:41:42;101899.06;;;8.55;79.54
43745;BME280;29359;53.048;8.732;2024-02-21T01:43:44;101912.09;;;8.54;79.62
43745;BME280;29359;53.048;8.732;2024-02-21T01:45:49;101899.06;;;8.55;79.63
43745;BME280;29359;53.048;8.732;2024-02-21T01:47:51;101886.94;;;8.54;79.63
43745;BME280;29359;53.048;8.732;2024-02-21T01:49:54;101890.41;;;8.53;79.82
43745;BME280;29359;53.048;8.732;2024-02-21T01:51:56;101879.16;;;8.51;79.78
43745;BME280;29359;53.048;8.732;2024-02-21T01:53:58;101874.81;;;8.49;79.94
43745;BME280;29359;53.048;8.732;2024-02-21T01:56:00;101867.88;;;8.51;79.87
43745;BME280;29359;53.048;8.732;2024-02-21T01:58:03;101868.72;;;8.51;79.51
43745;BME280;29359;53.048;8.732;2024-02-21T02:00:06;101857.50;;;8.49;79.91
43745;BME280;29359;53.048;8.732;2024-02-21T02:02:08;101857.47;;;8.51;79.48
43745;BME280;29359;53.048;8.732;2024-02-21T02:04:11;101839.22;;;8.51;79.63
43745;BME280;29359;53.048;8.732;2024-02-21T02:06:12;101814.13;;;8.47;79.96
43745;BME280;29359;53.048;8.732;2024-02-21T02:08:15;101804.56;;;8.47;79.63
43745;BME280;29359;53.048;8.732;2024-02-21T02:10:17;101807.19;;;8.44;79.50
43745;BME280;29359;53.048;8.732;2024-02-21T02:12:19;101805.47;;;8.43;79.61
43745;BME280;29359;53.048;8.732;2024-02-21T02:14:21;101813.31;;;8.42;79.89
43745;BME280;29359;53.048;8.732;2024-02-21T02:16:22;101810.72;;;8.40;79.87
43745;BME280;29359;53.048;8.732;2024-02-21T02:18:24;101800.38;;;8.37;79.99
43745;BME280;29359;53.048;8.732;2024-02-21T02:20:26;101811.63;;;8.39;79.80
43745;BME280;29359;53.048;8.732;2024-02-21T02:22:29;101808.19;;;8.37;79.89
43745;BME280;29359;53.048;8.732;2024-02-21T02:24:34;101813.38;;;8.35;80.28
43745;BME280;29359;53.048;8.732;2024-02-21T02:26:35;101815.06;;;8.36;80.09
43745;BME280;29359;53.048;8.732;2024-02-21T02:28:37;101818.59;;;8.34;80.31
43745;BME280;29359;53.048;8.732;2024-02-21T02:30:39;101818.56;;;8.35;80.19
43745;BME280;29359;53.048;8.732;2024-02-21T02:32:44;101814.25;;;8.38;79.95
43745;BME280;29359;53.048;8.732;2024-02-21T02:34:46;101819.44;;;8.39;79.78
43745;BME280;29359;53.048;8.732;2024-02-21T02:36:48;101824.63;;;8.39;79.89
43745;BME280;29359;53.048;8.732;2024-02-21T02:38:50;101822.88;;;8.40;80.01
43745;BME280;29359;53.048;8.732;2024-02-21T02:40:52;101823.75;;;8.40;79.96
43745;BME280;29359;53.048;8.732;2024-02-21T02:42:54;101809.00;;;8.39;79.91
43745;BME280;29359;53.048;8.732;2024-02-21T02:44:59;101803.81;;;8.39;79.73
43745;BME280;29359;53.048;8.732;2024-02-21T02:47:01;101803.81;;;8.39;79.76
43745;BME280;29359;53.048;8.732;2024-02-21T02:49:02;101798.56;;;8.41;79.57
43745;BME280;29359;53.048;8.732;2024-02-21T02:51:04;101795.09;;;8.40;79.86
43745;BME280;29359;53.048;8.732;2024-02-21T02:53:06;101794.28;;;8.38;79.90
43745;BME280;29359;53.048;8.732;2024-02-21T02:55:08;101813.34;;;8.40;79.81
43745;BME280;29359;53.048;8.732;2024-02-21T02:57:10;101811.63;;;8.39;80.00
43745;BME280;29359;53.048;8.732;2024-02-21T02:59:12;101814.19;;;8.41;79.79
43745;BME280;29359;53.048;8.732;2024-02-21T03:01:14;101815.03;;;8.43;79.86
43745;BME280;29359;53.048;8.732;2024-02-21T03:03:16;101823.75;;;8.40;79.85
43745;BME280;29359;53.048;8.732;2024-02-21T03:05:19;101813.28;;;8.43;79.53
43745;BME280;29359;53.048;8.732;2024-02-21T03:07:23;101827.16;;;8.44;79.97
43745;BME280;29359;53.048;8.732;2024-02-21T03:09:26;101818.50;;;8.43;79.66
43745;BME280;29359;53.048;8.732;2024-02-21T03:11:27;101823.72;;;8.43;79.66
43745;BME280;29359;53.048;8.732;2024-02-21T03:13:31;101821.97;;;8.45;79.43
43745;BME280;29359;53.048;8.732;2024-02-21T03:15:33;101814.97;;;8.47;79.58
43745;BME280;29359;53.048;8.732;2024-02-21T03:17:35;101808.00;;;8.49;79.38
43745;BME280;29359;53.048;8.732;2024-02-21T03:19:36;101809.72;;;8.50;79.45
43745;BME280;29359;53.048;8.732;2024-02-21T03:21:38;101807.13;;;8.50;79.44
43745;BME280;29359;53.048;8.732;2024-02-21T03:23:40;101814.09;;;8.50;79.49
43745;BME280;29359;53.048;8.732;2024-02-21T03:25:42;101815.78;;;8.51;79.61
43745;BME280;29359;53.048;8.732;2024-02-21T03:27:44;101814.94;;;8.50;79.96
43745;BME280;29359;53.048;8.732;2024-02-21T03:29:46;101813.22;;;8.49;79.98
43745;BME280;29359;53.048;8.732;2024-02-21T03:31:48;101808.88;;;8.50;79.63
43745;BME280;29359;53.048;8.732;2024-02-21T03:33:49;101814.03;;;8.51;80.07
43745;BME280;29359;53.048;8.732;2024-02-21T03:35:51;101808.00;;;8.49;79.96
43745;BME280;29359;53.048;8.732;2024-02-21T03:37:53;101801.06;;;8.48;80.25
43745;BME280;29359;53.048;8.732;2024-02-21T03:39:55;101809.75;;;8.47;80.47
43745;BME280;29359;53.048;8.732;2024-02-21T03:41:57;101801.97;;;8.46;80.93
43745;BME280;29359;53.048;8.732;2024-02-21T03:43:59;101801.16;;;8.42;81.10
43745;BME280;29359;53.048;8.732;2024-02-21T03:46:01;101802.06;;;8.36;81.65
43745;BME280;29359;53.048;8.732;2024-02-21T03:48:03;101800.41;;;8.31;81.94
43745;BME280;29359;53.048;8.732;2024-02-21T03:50:06;101799.56;;;8.30;82.06
43745;BME280;29359;53.048;8.732;2024-02-21T03:52:08;101799.63;;;8.26;82.66
43745;BME280;29359;53.048;8.732;2024-02-21T03:54:10;101788.34;;;8.24;82.74
43745;BME280;29359;53.048;8.732;2024-02-21T03:56:12;101803.16;;;8.22;82.88
43745;BME280;29359;53.048;8.732;2024-02-21T03:58:14;101802.28;;;8.20;83.21
43745;BME280;29359;53.048;8.732;2024-02-21T04:00:16;101798.00;;;8.16;83.40
43745;BME280;29359;53.048;8.732;2024-02-21T04:02:17;101798.03;;;8.14;83.66
43745;BME280;29359;53.048;8.732;2024-02-21T04:04:20;101793.69;;;8.13;83.76
43745;BME280;29359;53.048;8.732;2024-02-21T04:06:22;101799.78;;;8.14;83.97
43745;BME280;29359;53.048;8.732;2024-02-21T04:08:24;101798.94;;;8.11;83.97
43745;BME280;29359;53.048;8.732;2024-02-21T04:10:26;101791.97;;;8.12;84.20
43745;BME280;29359;53.048;8.732;2024-02-21T04:12:27;101797.22;;;8.10;84.27
43745;BME280;29359;53.048;8.732;2024-02-21T04:14:29;101803.34;;;8.06;84.44
43745;BME280;29359;53.048;8.732;2024-02-21T04:16:31;101800.75;;;8.06;84.69
43745;BME280;29359;53.048;8.732;2024-02-21T04:18:33;101796.47;;;8.02;84.90
43745;BME280;29359;53.048;8.732;2024-02-21T04:20:35;101795.59;;;8.00;84.98
43745;BME280;29359;53.048;8.732;2024-02-21T04:22:37;101797.38;;;7.97;85.16
43745;BME280;29359;53.048;8.732;2024-02-21T04:24:39;101800.00;;;7.95;85.49
43745;BME280;29359;53.048;8.732;2024-02-21T04:26:40;101787.00;;;7.94;85.58
43745;BME280;29359;53.048;8.732;2024-02-21T04:28:45;101787.03;;;7.92;85.76
43745;BME280;29359;53.048;8.732;2024-02-21T04:30:46;101784.47;;;7.89;85.84
43745;BME280;29359;53.048;8.732;2024-02-21T04:32:48;101789.69;;;7.87;86.15
43745;BME280;29359;53.048;8.732;2024-02-21T04:34:50;101787.97;;;7.85;86.40
43745;BME280;29359;53.048;8.732;2024-02-21T04:36:52;101785.38;;;7.86;86.25
43745;BME280;29359;53.048;8.732;2024-02-21T04:38:54;101792.31;;;7.86;86.44
43745;BME280;29359;53.048;8.732;2024-02-21T04:40:56;101784.56;;;7.83;86.47
43745;BME280;29359;53.048;8.732;2024-02-21T04:43:00;101783.69;;;7.81;86.76
43745;BME280;29359;53.048;8.732;2024-02-21T04:45:01;101779.34;;;7.83;86.77
43745;BME280;29359;53.048;8.732;2024-02-21T04:47:03;101768.97;;;7.80;86.79
43745;BME280;29359;53.048;8.732;2024-02-21T04:49:05;101766.38;;;7.80;87.01
43745;BME280;29359;53.048;8.732;2024-02-21T04:51:07;101762.91;;;7.79;87.16
43745;BME280;29359;53.048;8.732;2024-02-21T04:53:09;101775.88;;;7.81;87.22
43745;BME280;29359;53.048;8.732;2024-02-21T04:55:11;101770.72;;;7.78;87.17
43745;BME280;29359;53.048;8.732;2024-02-21T04:57:12;101773.31;;;7.78;87.22
43745;BME280;29359;53.048;8.732;2024-02-21T04:59:18;101763.81;;;7.77;87.42
43745;BME280;29359;53.048;8.732;2024-02-21T05:01:20;101775.94;;;7.76;87.53
43745;BME280;29359;53.048;8.732;2024-02-21T05:03:22;101782.91;;;7.76;87.43
43745;BME280;29359;53.048;8.732;2024-02-21T05:05:24;101780.28;;;7.76;87.47
43745;BME280;29359;53.048;8.732;2024-02-21T05:07:26;101775.09;;;7.76;87.56
43745;BME280;29359;53.048;8.732;2024-02-21T05:09:27;101774.22;;;7.75;87.64
43745;BME280;29359;53.048;8.732;2024-02-21T05:11:29;101776.84;;;7.74;87.60
43745;BME280;29359;53.048;8.732;2024-02-21T05:13:31;101777.69;;;7.76;87.67
43745;BME280;29359;53.048;8.732;2024-02-21T05:15:33;101778.53;;;7.76;87.63
43745;BME280;29359;53.048;8.732;2024-02-21T05:17:34;101774.19;;;7.77;87.87
43745;BME280;29359;53.048;8.732;2024-02-21T05:19:36;101767.25;;;7.79;87.91
43745;BME280;29359;53.048;8.732;2024-02-21T05:21:38;101762.06;;;7.77;87.57
43745;BME280;29359;53.048;8.732;2024-02-21T05:23:40;101762.94;;;7.76;87.85
43745;BME280;29359;53.048;8.732;2024-02-21T05:25:42;101754.28;;;7.76;87.71
43745;BME280;29359;53.048;8.732;2024-02-21T05:27:44;101756.88;;;7.76;87.76
43745;BME280;29359;53.048;8.732;2024-02-21T05:29:45;101760.34;;;7.76;87.90
43745;BME280;29359;53.048;8.732;2024-02-21T05:33:52;101747.34;;;7.76;87.83
43745;BME280;29359;53.048;8.732;2024-02-21T05:35:54;101736.94;;;7.76;87.93
43745;BME280;29359;53.048;8.732;2024-02-21T05:37:56;101739.56;;;7.75;87.88
43745;BME280;29359;53.048;8.732;2024-02-21T05:39:58;101727.41;;;7.74;87.99
43745;BME280;29359;53.048;8.732;2024-02-21T05:42:00;101730.03;;;7.74;88.13
43745;BME280;29359;53.048;8.732;2024-02-21T05:44:02;101730.03;;;7.74;88.12
43745;BME280;29359;53.048;8.732;2024-02-21T05:46:04;101734.38;;;7.75;87.99
43745;BME280;29359;53.048;8.732;2024-02-21T05:48:06;101734.38;;;7.75;88.07
43745;BME280;29359;53.048;8.732;2024-02-21T05:50:09;101735.25;;;7.72;88.03
43745;BME280;29359;53.048;8.732;2024-02-21T05:52:11;101726.56;;;7.73;88.28
43745;BME280;29359;53.048;8.732;2024-02-21T05:54:13;101727.41;;;7.75;88.01
43745;BME280;29359;53.048;8.732;2024-02-21T05:56:15;101721.38;;;7.72;88.30
43745;BME280;29359;53.048;8.732;2024-02-21T05:58:17;101718.75;;;7.75;88.15
43745;BME280;29359;53.048;8.732;2024-02-21T06:00:19;101725.69;;;7.76;88.20
43745;BME280;29359;53.048;8.732;2024-02-21T06:02:20;101729.16;;;7.75;88.23
43745;BME280;29359;53.048;8.732;2024-02-21T06:04:23;101724.81;;;7.75;88.47
43745;BME280;29359;53.048;8.732;2024-02-21T06:06:25;101723.91;;;7.78;87.99
43745;BME280;29359;53.048;8.732;2024-02-21T06:08:27;101722.19;;;7.77;88.26
43745;BME280;29359;53.048;8.732;2024-02-21T06:10:28;101730.00;;;7.77;88.27
43745;BME280;29359;53.048;8.732;2024-02-21T06:12:30;101730.84;;;7.79;88.12
43745;BME280;29359;53.048;8.732;2024-02-21T06:14:32;101725.69;;;7.76;88.21
43745;BME280;29359;53.048;8.732;2024-02-21T06:16:34;101725.69;;;7.76;88.17
43745;BME280;29359;53.048;8.732;2024-02-21T06:18:36;101725.69;;;7.76;88.23
43745;BME280;29359;53.048;8.732;2024-02-21T06:20:41;101724.81;;;7.75;88.19
43745;BME280;29359;53.048;8.732;2024-02-21T06:22:43;101730.88;;;7.76;88.42
43745;BME280;29359;53.048;8.732;2024-02-21T06:24:45;101724.78;;;7.77;88.22
43745;BME280;29359;53.048;8.732;2024-02-21T06:26:47;101723.06;;;7.76;88.25
43745;BME280;29359;53.048;8.732;2024-02-21T06:28:49;101723.09;;;7.74;88.38
43745;BME280;29359;53.048;8.732;2024-02-21T06:30:50;101723.09;;;7.74;88.39
43745;BME280;29359;53.048;8.732;2024-02-21T06:32:52;101721.38;;;7.75;88.36
43745;BME280;29359;53.048;8.732;2024-02-21T06:34:57;101721.38;;;7.75;88.34
43745;BME280;29359;53.048;8.732;2024-02-21T06:36:59;101724.81;;;7.74;88.46
43745;BME280;29359;53.048;8.732;2024-02-21T06:39:01;101725.69;;;7.76;88.34
43745;BME280;29359;53.048;8.732;2024-02-21T06:41:03;101732.59;;;7.77;88.36
43745;BME280;29359;53.048;8.732;2024-02-21T06:43:06;101728.28;;;7.76;88.16
43745;BME280;29359;53.048;8.732;2024-02-21T06:45:08;101734.38;;;7.75;88.45
43745;BME280;29359;53.048;8.732;2024-02-21T06:47:10;101734.38;;;7.75;88.48
43745;BME280;29359;53.048;8.732;2024-02-21T06:49:12;101736.06;;;7.76;88.38
43745;BME280;29359;53.048;8.732;2024-02-21T06:51:18;101728.28;;;7.76;88.47
43745;BME280;29359;53.048;8.732;2024-02-21T06:53:20;101731.75;;;7.75;88.38
43745;BME280;29359;53.048;8.732;2024-02-21T06:55:21;101723.03;;;7.77;88.29
43745;BME280;29359;53.048;8.732;2024-02-21T06:57:23;101724.78;;;7.77;88.39
43745;BME280;29359;53.048;8.732;2024-02-21T06:59:25;101727.34;;;7.80;88.26
43745;BME280;29359;53.048;8.732;2024-02-21T07:01:27;101728.19;;;7.83;88.19
43745;BME280;29359;53.048;8.732;2024-02-21T07:03:29;101725.59;;;7.82;88.03
43745;BME280;29359;53.048;8.732;2024-02-21T07:05:30;101723.00;;;7.80;88.39
43745;BME280;29359;53.048;8.732;2024-02-21T07:07:32;101716.91;;;7.83;88.28
43745;BME280;29359;53.048;8.732;2024-02-21T07:09:37;101709.13;;;7.81;88.14
43745;BME280;29359;53.048;8.732;2024-02-21T07:11:38;101709.13;;;7.81;88.26
43745;BME280;29359;53.048;8.732;2024-02-21T07:13:40;101711.72;;;7.83;88.15
43745;BME280;29359;53.048;8.732;2024-02-21T07:15:42;101717.75;;;7.85;88.16
43745;BME280;29359;53.048;8.732;2024-02-21T07:17:44;101725.56;;;7.86;88.18
43745;BME280;29359;53.048;8.732;2024-02-21T07:19:45;101734.19;;;7.88;88.01
43745;BME280;29359;53.048;8.732;2024-02-21T07:21:47;101737.63;;;7.89;87.99
43745;BME280;29359;53.048;8.732;2024-02-21T07:23:49;101752.38;;;7.90;88.08
43745;BME280;29359;53.048;8.732;2024-02-21T07:25:51;101736.78;;;7.90;88.08
43745;BME280;29359;53.048;8.732;2024-02-21T07:27:53;101735.84;;;7.93;88.01
43745;BME280;29359;53.048;8.732;2024-02-21T07:29:55;101741.91;;;7.93;87.81
43745;BME280;29359;53.048;8.732;2024-02-21T07:31:56;101736.72;;;7.93;87.96
43745;BME280;29359;53.048;8.732;2024-02-21T07:33:58;101741.00;;;7.97;87.88
43745;BME280;29359;53.048;8.732;2024-02-21T07:36:00;101739.25;;;7.99;87.74
43745;BME280;29359;53.048;8.732;2024-02-21T07:38:02;101733.16;;;8.00;87.52
43745;BME280;29359;53.048;8.732;2024-02-21T07:40:06;101736.63;;;8.01;87.54
43745;BME280;29359;53.048;8.732;2024-02-21T07:42:08;101735.75;;;8.02;87.49
43745;BME280;29359;53.048;8.732;2024-02-21T07:44:10;101742.72;;;8.00;87.55
43745;BME280;29359;53.048;8.732;2024-02-21T07:46:12;101743.56;;;8.02;87.49
43745;BME280;29359;53.048;8.732;2024-02-21T07:48:13;101738.34;;;8.00;87.47
43745;BME280;29359;53.048;8.732;2024-02-21T07:50:16;101734.00;;;8.02;87.44
43745;BME280;29359;53.048;8.732;2024-02-21T07:52:18;101745.25;;;8.04;87.57
43745;BME280;29359;53.048;8.732;2024-02-21T07:54:20;101739.19;;;8.04;87.48
43745;BME280;29359;53.048;8.732;2024-02-21T07:56:22;101730.53;;;8.03;87.55
43745;BME280;29359;53.048;8.732;2024-02-21T07:58:23;101736.53;;;8.05;87.32
43745;BME280;29359;53.048;8.732;2024-02-21T08:00:25;101734.84;;;8.06;87.26
43745;BME280;29359;53.048;8.732;2024-02-21T08:02:27;101740.03;;;8.06;87.17
43745;BME280;29359;53.048;8.732;2024-02-21T08:04:29;101733.06;;;8.08;87.08
43745;BME280;29359;53.048;8.732;2024-02-21T08:06:31;101726.13;;;8.07;87.07
43745;BME280;29359;53.048;8.732;2024-02-21T08:08:33;101726.09;;;8.10;87.12
43745;BME280;29359;53.048;8.732;2024-02-21T08:10:35;101721.75;;;8.10;86.99
43745;BME280;29359;53.048;8.732;2024-02-21T08:12:38;101725.19;;;8.12;87.05
43745;BME280;29359;53.048;8.732;2024-02-21T08:14:40;101726.03;;;8.15;86.90
43745;BME280;29359;53.048;8.732;2024-02-21T08:16:42;101719.09;;;8.15;86.67
43745;BME280;29359;53.048;8.732;2024-02-21T08:18:44;101718.25;;;8.11;86.90
43745;BME280;29359;53.048;8.732;2024-02-21T08:20:46;101715.63;;;8.15;86.83
43745;BME280;29359;53.048;8.732;2024-02-21T08:22:48;101706.09;;;8.12;86.99
43745;BME280;29359;53.048;8.732;2024-02-21T08:24:49;101706.97;;;8.12;87.00
43745;BME280;29359;53.048;8.732;2024-02-21T08:26:51;101703.47;;;8.15;86.94
43745;BME280;29359;53.048;8.732;2024-02-21T08:28:53;101700.00;;;8.13;86.98
43745;BME280;29359;53.048;8.732;2024-02-21T08:30:55;101706.06;;;8.15;87.04
43745;BME280;29359;53.048;8.732;2024-02-21T08:32:57;101708.66;;;8.15;87.06
43745;BME280;29359;53.048;8.732;2024-02-21T08:34:59;101705.22;;;8.15;86.92
43745;BME280;29359;53.048;8.732;2024-02-21T08:37:01;101706.97;;;8.14;86.93
43745;BME280;29359;53.048;8.732;2024-02-21T08:39:03;101702.63;;;8.15;86.82
43745;BME280;29359;53.048;8.732;2024-02-21T08:41:06;101698.31;;;8.12;86.80
43745;BME280;29359;53.048;8.732;2024-02-21T08:43:08;101695.69;;;8.14;87.03
43745;BME280;29359;53.048;8.732;2024-02-21T08:45:10;101701.69;;;8.17;86.69
43745;BME280;29359;53.048;8.732;2024-02-21T08:47:12;101692.16;;;8.16;86.77
43745;BME280;29359;53.048;8.732;2024-02-21T08:49:14;101699.97;;;8.16;86.54
43745;BME280;29359;53.048;8.732;2024-02-21T08:51:16;101688.66;;;8.19;86.09
43745;BME280;29359;53.048;8.732;2024-02-21T08:53:18;101691.28;;;8.17;86.37
43745;BME280;29359;53.048;8.732;2024-02-21T08:55:19;101695.59;;;8.20;86.13
43745;BME280;29359;53.048;8.732;2024-02-21T08:57:21;101687.78;;;8.20;86.25
43745;BME280;29359;53.048;8.732;2024-02-21T08:59:23;101690.41;;;8.18;86.18
43745;BME280;29359;53.048;8.732;2024-02-21T09:01:26;101685.19;;;8.20;86.32
43745;BME280;29359;53.048;8.732;2024-02-21T09:03:28;101675.66;;;8.19;86.23
43745;BME280;29359;53.048;8.732;2024-02-21T09:05:30;101673.00;;;8.22;86.14
43745;BME280;29359;53.048;8.732;2024-02-21T09:07:32;101675.63;;;8.20;86.05
43745;BME280;29359;53.048;8.732;2024-02-21T09:09:34;101681.69;;;8.21;85.89
43745;BME280;29359;53.048;8.732;2024-02-21T09:11:36;101680.81;;;8.22;86.02
43745;BME280;29359;53.048;8.732;2024-02-21T09:13:38;101675.63;;;8.22;86.30
43745;BME280;29359;53.048;8.732;2024-02-21T09:15:40;101673.84;;;8.24;85.95
43745;BME280;29359;53.048;8.732;2024-02-21T09:17:42;101668.63;;;8.25;85.82
43745;BME280;29359;53.048;8.732;2024-02-21T09:19:44;101672.09;;;8.24;85.73
43745;BME280;29359;53.048;8.732;2024-02-21T09:21:45;101664.28;;;8.26;85.50
43745;BME280;29359;53.048;8.732;2024-02-21T09:23:47;101666.88;;;8.26;85.40
43745;BME280;29359;53.048;8.732;2024-02-21T09:25:49;101666.88;;;8.24;85.16
43745;BME280;29359;53.048;8.732;2024-02-21T09:27:54;101664.25;;;8.27;85.27
43745;BME280;29359;53.048;8.732;2024-02-21T09:29:56;101659.88;;;8.29;85.34
43745;BME280;29359;53.048;8.732;2024-02-21T09:31:59;101659.84;;;8.31;84.83
43745;BME280;29359;53.048;8.732;2024-02-21T09:34:01;101657.28;;;8.28;84.98
43745;BME280;29359;53.048;8.732;2024-02-21T09:36:04;101648.59;;;8.29;85.24
43745;BME280;29359;53.048;8.732;2024-02-21T09:38:07;101651.16;;;8.33;85.06
43745;BME280;29359;53.048;8.732;2024-02-21T09:40:09;101649.41;;;8.34;84.90
43745;BME280;29359;53.048;8.732;2024-02-21T09:42:11;101650.22;;;8.36;85.09
43745;BME280;29359;53.048;8.732;2024-02-21T09:44:13;101646.72;;;8.40;84.67
43745;BME280;29359;53.048;8.732;2024-02-21T09:46:17;101649.31;;;8.42;84.65
43745;BME280;29359;53.048;8.732;2024-02-21T09:50:54;101644.09;;;8.42;83.98
43745;BME280;29359;53.048;8.732;2024-02-21T09:52:58;101638.88;;;8.42;83.94
43745;BME280;29359;53.048;8.732;2024-02-21T09:55:01;101633.69;;;8.42;83.66
43745;BME280;29359;53.048;8.732;2024-02-21T09:57:03;101636.28;;;8.40;83.87
43745;BME280;29359;53.048;8.732;2024-02-21T09:59:06;101625.03;;;8.41;83.32
43745;BME280;29359;53.048;8.732;2024-02-21T10:01:09;101631.09;;;8.40;82.98
43745;BME280;29359;53.048;8.732;2024-02-21T10:03:30;101622.41;;;8.40;82.99
43745;BME280;29359;53.048;8.732;2024-02-21T10:05:31;101623.22;;;8.43;82.65
43745;BME280;29359;53.048;8.732;2024-02-21T10:07:33;101612.00;;;8.41;82.51
43745;BME280;29359;53.048;8.732;2024-02-21T10:09:35;101612.84;;;8.42;82.52
43745;BME280;29359;53.048;8.732;2024-02-21T10:11:37;101614.56;;;8.43;82.83
43745;BME280;29359;53.048;8.732;2024-02-21T10:13:39;101601.50;;;8.44;82.73
43745;BME280;29359;53.048;8.732;2024-02-21T10:15:42;101610.13;;;8.49;82.60
43745;BME280;29359;53.048;8.732;2024-02-21T10:17:44;101602.28;;;8.51;82.32
43745;BME280;29359;53.048;8.732;2024-02-21T10:19:45;101601.38;;;8.52;82.11
43745;BME280;29359;53.048;8.732;2024-02-21T10:22:02;101599.59;;;8.55;82.30
43745;BME280;29359;53.048;8.732;2024-02-21T10:24:05;101592.53;;;8.60;82.08
43745;BME280;29359;53.048;8.732;2024-02-21T10:26:07;101592.53;;;8.60;81.87
43745;BME280;29359;53.048;8.732;2024-02-21T10:28:12;101589.78;;;8.68;81.69
43745;BME280;29359;53.048;8.732;2024-02-21T10:30:14;101591.53;;;8.69;80.80
43745;BME280;29359;53.048;8.732;2024-02-21T10:32:16;101581.91;;;8.73;80.71
43745;BME280;29359;53.048;8.732;2024-02-21T10:34:18;101581.91;;;8.73;80.46
43745;BME280;29359;53.048;8.732;2024-02-21T10:36:20;101581.88;;;8.74;80.52
43745;BME280;29359;53.048;8.732;2024-02-21T10:38:22;101592.19;;;8.80;80.64
43745;BME280;29359;53.048;8.732;2024-02-21T10:40:28;101586.06;;;8.83;80.11
43745;BME280;29359;53.048;8.732;2024-02-21T10:42:33;101579.88;;;8.87;80.04
43745;BME280;29359;53.048;8.732;2024-02-21T10:44:38;101571.19;;;8.88;79.61
43745;BME280;29359;53.048;8.732;2024-02-21T10:46:44;101573.78;;;8.90;79.29
43745;BME280;29359;53.048;8.732;2024-02-21T10:48:48;101558.94;;;8.92;79.02
43745;BME280;29359;53.048;8.732;2024-02-21T10:51:19;101563.22;;;8.96;78.68